createdAt,value
2019-05-11T00:00:33.236Z,20.63
2019-05-11T00:01:08.927Z,20.73
2019-05-11T00:01:44.774Z,19.97
2019-05-11T00:02:20.046Z,19.77
2019-05-11T00:02:55.670Z,19.87
2019-05-11T00:03:31.256Z,19.50
2019-05-11T00:04:06.731Z,19.33
2019-05-11T00:04:41.998Z,19.30
2019-05-11T00:05:17.637Z,19.43
2019-05-11T00:05:54.583Z,20.43
2019-05-11T00:06:30.322Z,18.70
2019-05-11T00:07:05.640Z,19.13
2019-05-11T00:07:41.239Z,19.30
2019-05-11T00:08:16.940Z,18.40
2019-05-11T00:08:52.512Z,18.83
2019-05-11T00:09:27.649Z,19.10
2019-05-11T00:10:03.438Z,18.17
2019-05-11T00:10:41.051Z,18.10
2019-05-11T00:11:17.226Z,18.57
2019-05-11T00:11:52.437Z,18.13
2019-05-11T00:12:28.311Z,18.20
2019-05-11T00:13:04.063Z,18.47
2019-05-11T00:13:40.140Z,17.67
2019-05-11T00:14:15.538Z,17.67
2019-05-11T00:14:51.394Z,17.83
2019-05-11T00:15:27.141Z,17.80
2019-05-11T00:16:02.638Z,18.57
2019-05-11T00:16:37.838Z,17.73
2019-05-11T00:17:13.322Z,18.03
2019-05-11T00:17:48.884Z,17.17
2019-05-11T00:18:24.382Z,17.83
2019-05-11T00:18:59.468Z,18.23
2019-05-11T00:19:34.994Z,17.77
2019-05-11T00:20:10.723Z,18.10
2019-05-11T00:20:46.202Z,17.73
2019-05-11T00:21:21.535Z,17.47
2019-05-11T00:21:57.306Z,17.43
2019-05-11T00:22:32.750Z,18.60
2019-05-11T00:23:08.465Z,17.63
2019-05-11T00:23:43.650Z,18.17
2019-05-11T00:24:19.707Z,17.60
2019-05-11T00:24:55.236Z,17.77
2019-05-11T00:25:30.683Z,17.40
2019-05-11T00:26:05.790Z,17.63
2019-05-11T00:26:41.286Z,17.90
2019-05-11T00:27:16.835Z,18.03
2019-05-11T00:27:52.347Z,17.83
2019-05-11T00:28:27.441Z,17.97
2019-05-11T00:29:02.896Z,18.07
2019-05-11T00:29:38.363Z,18.00
2019-05-11T00:30:13.810Z,18.10
2019-05-11T00:30:49.019Z,17.63
2019-05-11T00:31:24.537Z,18.37
2019-05-11T00:32:00.064Z,17.83
2019-05-11T00:32:35.498Z,17.83
2019-05-11T00:33:10.623Z,17.70
2019-05-11T00:33:46.143Z,18.20
2019-05-11T00:34:21.604Z,18.60
2019-05-11T00:34:57.138Z,18.27
2019-05-11T00:35:32.541Z,18.70
2019-05-11T00:36:08.076Z,19.20
2019-05-11T00:36:43.878Z,18.93
2019-05-11T00:37:19.343Z,18.53
2019-05-11T00:37:54.428Z,18.30
2019-05-11T00:38:29.877Z,18.53
2019-05-11T00:39:07.693Z,18.73
2019-05-11T00:39:43.202Z,18.20
2019-05-11T00:40:18.262Z,18.93
2019-05-11T00:40:54.015Z,18.60
2019-05-11T00:41:29.800Z,18.60
2019-05-11T00:42:05.858Z,19.63
2019-05-11T00:42:41.113Z,18.87
2019-05-11T00:43:16.579Z,19.40
2019-05-11T00:43:52.064Z,18.53
2019-05-11T00:44:27.607Z,19.17
2019-05-11T00:45:04.424Z,18.33
2019-05-11T00:45:40.021Z,19.30
2019-05-11T00:46:15.458Z,19.40
2019-05-11T00:46:51.155Z,18.40
2019-05-11T00:47:26.695Z,19.53
2019-05-11T00:48:02.488Z,20.10
2019-05-11T00:48:38.027Z,18.43
2019-05-11T00:49:13.534Z,19.63
2019-05-11T00:49:48.634Z,18.73
2019-05-11T00:50:37.850Z,19.87
2019-05-11T00:51:01.565Z,18.97
2019-05-11T00:51:37.776Z,19.40
2019-05-11T00:52:12.935Z,19.53
2019-05-11T00:52:48.457Z,19.23
2019-05-11T00:53:24.025Z,20.17
2019-05-11T00:53:59.535Z,19.60
2019-05-11T00:54:34.658Z,19.73
2019-05-11T00:55:10.121Z,19.87
2019-05-11T00:55:45.886Z,19.50
2019-05-11T00:56:21.335Z,19.73
2019-05-11T00:56:56.414Z,19.50
2019-05-11T00:57:31.943Z,20.03
2019-05-11T00:58:07.430Z,20.13
2019-05-11T00:58:42.890Z,19.43
2019-05-11T00:59:21.651Z,20.13
2019-05-11T00:59:56.321Z,20.20
2019-05-11T01:00:31.855Z,19.80
2019-05-11T01:01:07.431Z,18.73
2019-05-11T01:01:42.518Z,19.73
2019-05-11T01:02:18.048Z,19.53
2019-05-11T01:02:53.605Z,20.03
2019-05-11T01:03:29.074Z,19.50
2019-05-11T01:04:04.252Z,19.60
2019-05-11T01:04:39.924Z,19.80
2019-05-11T01:05:15.482Z,20.10
2019-05-11T01:05:51.237Z,19.77
2019-05-11T01:06:26.386Z,18.93
2019-05-11T01:07:01.841Z,20.00
2019-05-11T01:07:37.662Z,20.20
2019-05-11T01:08:13.603Z,19.53
2019-05-11T01:08:49.005Z,20.70
2019-05-11T01:09:24.816Z,19.30
2019-05-11T01:10:00.282Z,19.37
2019-05-11T01:10:41.943Z,19.97
2019-05-11T01:11:13.089Z,19.93
2019-05-11T01:11:48.859Z,19.40
2019-05-11T01:12:24.548Z,19.37
2019-05-11T01:13:00.011Z,19.37
2019-05-11T01:13:35.102Z,19.60
2019-05-11T01:14:10.573Z,19.90
2019-05-11T01:14:46.049Z,19.90
2019-05-11T01:15:21.505Z,18.50
2019-05-11T01:15:56.826Z,19.90
2019-05-11T01:16:32.376Z,19.37
2019-05-11T01:17:07.830Z,19.90
2019-05-11T01:17:43.427Z,19.47
2019-05-11T01:18:18.502Z,19.67
2019-05-11T01:18:54.935Z,19.20
2019-05-11T01:19:30.763Z,19.53
2019-05-11T01:20:06.752Z,19.27
2019-05-11T01:20:42.107Z,19.20
2019-05-11T01:21:18.544Z,19.60
2019-05-11T01:21:55.252Z,19.77
2019-05-11T01:22:30.702Z,19.67
2019-05-11T01:23:05.944Z,20.60
2019-05-11T01:23:41.466Z,19.57
2019-05-11T01:24:17.457Z,20.10
2019-05-11T01:24:53.183Z,19.87
2019-05-11T01:25:28.342Z,19.30
2019-05-11T01:26:03.955Z,19.87
2019-05-11T01:26:39.670Z,19.27
2019-05-11T01:27:15.266Z,20.47
2019-05-11T01:27:50.338Z,19.70
2019-05-11T01:28:26.762Z,19.43
2019-05-11T01:29:02.215Z,19.83
2019-05-11T01:29:37.948Z,20.23
2019-05-11T01:30:13.427Z,19.67
2019-05-11T01:30:48.929Z,19.07
2019-05-11T01:31:24.393Z,19.43
2019-05-11T01:31:59.858Z,19.83
2019-05-11T01:32:34.949Z,19.77
2019-05-11T01:33:10.730Z,19.37
2019-05-11T01:33:46.186Z,20.20
2019-05-11T01:34:21.649Z,20.07
2019-05-11T01:34:56.758Z,19.93
2019-05-11T01:35:32.343Z,20.13
2019-05-11T01:36:07.874Z,19.83
2019-05-11T01:36:44.298Z,19.50
2019-05-11T01:37:19.444Z,19.67
2019-05-11T01:37:54.901Z,19.80
2019-05-11T01:38:30.435Z,19.97
2019-05-11T01:39:07.304Z,20.40
2019-05-11T01:39:43.764Z,20.13
2019-05-11T01:40:20.619Z,20.20
2019-05-11T01:40:59.044Z,19.70
2019-05-11T01:41:33.571Z,19.70
2019-05-11T01:42:08.679Z,19.63
2019-05-11T01:42:44.196Z,20.30
2019-05-11T01:43:19.665Z,18.70
2019-05-11T01:43:55.466Z,19.63
2019-05-11T01:44:30.572Z,19.67
2019-05-11T01:45:06.102Z,19.87
2019-05-11T01:45:41.575Z,19.23
2019-05-11T01:46:17.290Z,20.53
2019-05-11T01:46:52.414Z,19.40
2019-05-11T01:47:27.901Z,19.10
2019-05-11T01:48:03.349Z,19.57
2019-05-11T01:48:38.798Z,20.00
2019-05-11T01:49:13.899Z,19.83
2019-05-11T01:49:49.487Z,19.30
2019-05-11T01:50:25.014Z,20.53
2019-05-11T01:51:00.572Z,19.77
2019-05-11T01:51:35.690Z,19.30
2019-05-11T01:52:11.160Z,19.10
2019-05-11T01:52:46.990Z,19.37
2019-05-11T01:53:23.170Z,19.50
2019-05-11T01:53:58.467Z,19.40
2019-05-11T01:54:33.931Z,19.50
2019-05-11T01:55:09.669Z,18.83
2019-05-11T01:55:45.529Z,19.63
2019-05-11T01:56:20.639Z,20.03
2019-05-11T01:56:56.371Z,20.00
2019-05-11T01:57:31.843Z,20.00
2019-05-11T01:58:07.262Z,19.93
2019-05-11T01:58:42.314Z,20.37
2019-05-11T01:59:17.727Z,21.40
2019-05-11T01:59:53.215Z,21.03
2019-05-11T02:00:28.706Z,20.50
2019-05-11T02:01:03.889Z,21.83
2019-05-11T02:01:39.443Z,20.50
2019-05-11T02:02:14.859Z,21.83
2019-05-11T02:02:50.292Z,21.97
2019-05-11T02:03:25.332Z,22.73
2019-05-11T02:04:00.822Z,22.83
2019-05-11T02:04:37.494Z,22.63
2019-05-11T02:05:31.588Z,23.27
2019-05-11T02:06:06.996Z,22.33
2019-05-11T02:06:42.399Z,23.60
2019-05-11T02:07:18.246Z,22.47
2019-05-11T02:07:53.347Z,22.77
2019-05-11T02:08:28.810Z,23.83
2019-05-11T02:09:05.607Z,22.30
2019-05-11T02:09:41.017Z,24.37
2019-05-11T02:10:16.075Z,24.00
2019-05-11T02:10:52.560Z,23.87
2019-05-11T02:11:28.321Z,23.80
2019-05-11T02:12:03.726Z,23.63
2019-05-11T02:12:38.767Z,24.63
2019-05-11T02:13:14.216Z,23.07
2019-05-11T02:13:50.285Z,23.50
2019-05-11T02:14:25.694Z,25.00
2019-05-11T02:15:00.752Z,23.83
2019-05-11T02:15:36.163Z,23.10
2019-05-11T02:16:11.574Z,24.40
2019-05-11T02:16:47.052Z,23.90
2019-05-11T02:17:22.394Z,24.43
2019-05-11T02:17:57.798Z,23.63
2019-05-11T02:18:33.444Z,24.80
2019-05-11T02:19:08.891Z,24.60
2019-05-11T02:19:43.959Z,23.87
2019-05-11T02:20:19.391Z,24.87
2019-05-11T02:20:54.829Z,23.87
2019-05-11T02:21:30.251Z,23.97
2019-05-11T02:22:05.302Z,24.83
2019-05-11T02:22:41.126Z,24.40
2019-05-11T02:23:16.571Z,24.30
2019-05-11T02:23:52.006Z,23.00
2019-05-11T02:24:27.514Z,23.73
2019-05-11T02:25:02.938Z,24.37
2019-05-11T02:25:38.733Z,24.93
2019-05-11T02:26:14.126Z,24.07
2019-05-11T02:26:49.174Z,24.30
2019-05-11T02:27:24.578Z,24.70
2019-05-11T02:27:59.993Z,24.50
2019-05-11T02:28:35.419Z,24.47
2019-05-11T02:29:10.758Z,23.37
2019-05-11T02:29:47.440Z,23.57
2019-05-11T02:30:22.856Z,24.33
2019-05-11T02:30:58.274Z,25.17
2019-05-11T02:31:33.920Z,24.00
2019-05-11T02:32:09.972Z,23.73
2019-05-11T02:32:45.478Z,24.10
2019-05-11T02:33:21.213Z,23.90
2019-05-11T02:33:56.248Z,22.67
2019-05-11T02:34:31.673Z,22.90
2019-05-11T02:35:07.114Z,24.00
2019-05-11T02:35:42.563Z,23.57
2019-05-11T02:36:17.611Z,23.87
2019-05-11T02:36:53.046Z,23.73
2019-05-11T02:37:28.861Z,24.23
2019-05-11T02:38:04.261Z,23.67
2019-05-11T02:38:39.329Z,22.47
2019-05-11T02:39:14.764Z,22.73
2019-05-11T02:39:50.179Z,23.30
2019-05-11T02:40:25.604Z,23.13
2019-05-11T02:41:01.017Z,22.73
2019-05-11T02:41:37.538Z,22.90
2019-05-11T02:42:13.709Z,23.23
2019-05-11T02:42:50.202Z,23.93
2019-05-11T02:43:25.243Z,22.87
2019-05-11T02:44:01.129Z,23.07
2019-05-11T02:44:36.542Z,22.93
2019-05-11T02:45:12.034Z,23.03
2019-05-11T02:45:47.080Z,23.37
2019-05-11T02:46:22.499Z,23.10
2019-05-11T02:46:58.908Z,22.23
2019-05-11T02:47:35.007Z,22.57
2019-05-11T02:48:10.369Z,23.13
2019-05-11T02:48:45.801Z,22.43
2019-05-11T02:49:21.447Z,22.63
2019-05-11T02:49:56.851Z,22.57
2019-05-11T02:50:31.907Z,21.70
2019-05-11T02:51:07.738Z,22.33
2019-05-11T02:51:43.142Z,22.40
2019-05-11T02:52:18.551Z,22.20
2019-05-11T02:52:54.193Z,22.47
2019-05-11T02:53:31.032Z,21.40
2019-05-11T02:54:06.477Z,21.13
2019-05-11T02:54:42.007Z,21.57
2019-05-11T02:55:17.138Z,21.50
2019-05-11T02:55:52.549Z,21.27
2019-05-11T02:56:28.285Z,21.47
2019-05-11T02:57:04.284Z,21.40
2019-05-11T02:57:39.389Z,21.50
2019-05-11T02:58:14.800Z,21.20
2019-05-11T02:58:50.557Z,21.37
2019-05-11T02:59:29.816Z,21.57
2019-05-11T03:00:04.814Z,22.13
2019-05-11T03:00:44.351Z,22.80
2019-05-11T03:01:19.823Z,21.47
2019-05-11T03:01:55.589Z,21.40
2019-05-11T03:02:30.627Z,22.27
2019-05-11T03:03:06.376Z,22.33
2019-05-11T03:03:42.210Z,22.30
2019-05-11T03:04:17.633Z,22.30
2019-05-11T03:04:52.686Z,22.50
2019-05-11T03:05:28.183Z,21.90
2019-05-11T03:06:03.640Z,23.47
2019-05-11T03:06:39.187Z,23.07
2019-05-11T03:07:14.242Z,22.47
2019-05-11T03:07:49.722Z,23.07
2019-05-11T03:08:25.490Z,23.20
2019-05-11T03:09:01.203Z,23.80
2019-05-11T03:09:37.799Z,23.53
2019-05-11T03:10:13.233Z,22.57
2019-05-11T03:10:48.736Z,22.87
2019-05-11T03:11:24.127Z,23.73
2019-05-11T03:11:59.206Z,23.77
2019-05-11T03:12:34.679Z,24.77
2019-05-11T03:13:10.100Z,25.57
2019-05-11T03:13:45.524Z,23.43
2019-05-11T03:14:20.620Z,23.23
2019-05-11T03:14:56.036Z,23.80
2019-05-11T03:15:31.483Z,24.40
2019-05-11T03:16:07.036Z,23.70
2019-05-11T03:16:42.679Z,24.33
2019-05-11T03:17:22.571Z,23.60
2019-05-11T03:17:57.994Z,24.97
2019-05-11T03:18:33.667Z,24.73
2019-05-11T03:19:08.705Z,23.97
2019-05-11T03:19:44.414Z,24.17
2019-05-11T03:20:20.120Z,24.57
2019-05-11T03:20:55.532Z,24.17
2019-05-11T03:21:30.593Z,24.00
2019-05-11T03:22:06.035Z,23.93
2019-05-11T03:22:41.535Z,24.43
2019-05-11T03:23:16.943Z,24.80
2019-05-11T03:23:52.313Z,23.47
2019-05-11T03:24:27.773Z,24.33
2019-05-11T03:25:03.213Z,24.70
2019-05-11T03:25:38.960Z,24.93
2019-05-11T03:26:14.668Z,23.83
2019-05-11T03:26:50.349Z,23.60
2019-05-11T03:27:25.760Z,24.03
2019-05-11T03:28:01.531Z,23.97
2019-05-11T03:28:36.586Z,24.67
2019-05-11T03:29:12.004Z,25.27
2019-05-11T03:29:47.806Z,24.70
2019-05-11T03:30:23.339Z,25.67
2019-05-11T03:30:59.805Z,25.27
2019-05-11T03:31:35.248Z,24.50
2019-05-11T03:32:10.667Z,24.23
2019-05-11T03:32:46.147Z,24.80
2019-05-11T03:33:21.210Z,24.83
2019-05-11T03:33:56.657Z,25.67
2019-05-11T03:34:32.507Z,25.57
2019-05-11T03:35:07.980Z,25.47
2019-05-11T03:35:43.095Z,25.83
2019-05-11T03:36:18.612Z,25.10
2019-05-11T03:36:54.346Z,24.47
2019-05-11T03:37:29.768Z,25.47
2019-05-11T03:38:04.890Z,25.53
2019-05-11T03:38:40.373Z,24.67
2019-05-11T03:39:15.815Z,25.97
2019-05-11T03:39:51.740Z,25.53
2019-05-11T03:40:27.487Z,26.10
2019-05-11T03:41:02.949Z,25.77
2019-05-11T03:41:38.414Z,25.70
2019-05-11T03:42:15.442Z,26.10
2019-05-11T03:42:51.023Z,25.87
2019-05-11T03:43:26.680Z,26.23
2019-05-11T03:44:02.071Z,25.60
2019-05-11T03:44:37.823Z,25.83
2019-05-11T03:45:13.395Z,26.17
2019-05-11T03:45:49.147Z,26.37
2019-05-11T03:46:25.240Z,26.03
2019-05-11T03:47:00.667Z,25.97
2019-05-11T03:47:35.738Z,25.43
2019-05-11T03:48:11.136Z,25.73
2019-05-11T03:48:46.555Z,26.20
2019-05-11T03:49:21.972Z,26.27
2019-05-11T03:49:57.326Z,25.73
2019-05-11T03:50:32.749Z,26.80
2019-05-11T03:51:08.576Z,25.73
2019-05-11T03:51:43.998Z,28.43
2019-05-11T03:52:19.387Z,27.07
2019-05-11T03:52:54.807Z,26.20
2019-05-11T03:53:30.225Z,26.73
2019-05-11T03:54:05.645Z,26.43
2019-05-11T03:54:40.700Z,28.27
2019-05-11T03:55:16.819Z,28.17
2019-05-11T03:55:52.845Z,27.87
2019-05-11T03:56:28.263Z,27.77
2019-05-11T03:57:03.342Z,27.43
2019-05-11T03:57:38.768Z,27.83
2019-05-11T03:58:14.551Z,28.63
2019-05-11T03:58:50.242Z,28.03
2019-05-11T03:59:25.351Z,28.37
2019-05-11T04:00:00.783Z,29.47
2019-05-11T04:00:36.439Z,29.40
2019-05-11T04:01:11.867Z,29.90
2019-05-11T04:01:46.906Z,29.90
2019-05-11T04:02:22.638Z,30.67
2019-05-11T04:02:58.144Z,30.80
2019-05-11T04:03:33.836Z,32.00
2019-05-11T04:04:09.168Z,31.50
2019-05-11T04:04:44.608Z,30.57
2019-05-11T04:05:20.029Z,31.90
2019-05-11T04:05:55.527Z,31.40
2019-05-11T04:06:30.563Z,32.00
2019-05-11T04:07:06.058Z,31.43
2019-05-11T04:07:41.868Z,30.50
2019-05-11T04:08:17.624Z,31.37
2019-05-11T04:08:52.949Z,30.57
2019-05-11T04:09:28.904Z,31.00
2019-05-11T04:10:04.683Z,31.70
2019-05-11T04:10:40.115Z,31.40
2019-05-11T04:11:15.171Z,30.23
2019-05-11T04:11:50.595Z,30.27
2019-05-11T04:12:34.662Z,30.73
2019-05-11T04:13:03.154Z,30.87
2019-05-11T04:13:38.184Z,30.73
2019-05-11T04:14:13.677Z,31.27
2019-05-11T04:14:49.092Z,31.00
2019-05-11T04:15:24.529Z,31.30
2019-05-11T04:15:59.599Z,30.53
2019-05-11T04:16:35.015Z,30.67
2019-05-11T04:17:10.427Z,31.30
2019-05-11T04:17:45.840Z,33.07
2019-05-11T04:18:20.904Z,30.47
2019-05-11T04:18:56.567Z,30.67
2019-05-11T04:19:31.992Z,31.27
2019-05-11T04:20:11.336Z,32.03
2019-05-11T04:20:46.387Z,31.73
2019-05-11T04:21:21.809Z,32.53
2019-05-11T04:21:57.233Z,31.63
2019-05-11T04:22:32.687Z,32.87
2019-05-11T04:23:07.793Z,33.10
2019-05-11T04:23:43.513Z,34.67
2019-05-11T04:24:19.563Z,34.90
2019-05-11T04:24:54.976Z,35.53
2019-05-11T04:25:30.584Z,33.90
2019-05-11T04:26:06.029Z,34.03
2019-05-11T04:26:41.792Z,35.47
2019-05-11T04:27:19.657Z,35.73
2019-05-11T04:27:53.973Z,35.43
2019-05-11T04:28:29.463Z,34.33
2019-05-11T04:29:04.870Z,34.43
2019-05-11T04:29:40.320Z,34.50
2019-05-11T04:30:16.155Z,34.80
2019-05-11T04:30:51.707Z,34.90
2019-05-11T04:31:27.180Z,34.13
2019-05-11T04:32:02.594Z,34.83
2019-05-11T04:32:37.975Z,35.03
2019-05-11T04:33:13.648Z,35.73
2019-05-11T04:33:49.343Z,34.67
2019-05-11T04:34:24.757Z,34.57
2019-05-11T04:35:00.522Z,34.70
2019-05-11T04:35:36.330Z,33.63
2019-05-11T04:36:11.743Z,32.67
2019-05-11T04:36:47.165Z,34.53
2019-05-11T04:37:22.209Z,33.60
2019-05-11T04:37:57.659Z,33.93
2019-05-11T04:38:33.620Z,34.37
2019-05-11T04:39:09.026Z,34.47
2019-05-11T04:39:44.138Z,34.80
2019-05-11T04:40:19.552Z,34.30
2019-05-11T04:40:54.963Z,33.97
2019-05-11T04:41:30.671Z,33.83
2019-05-11T04:42:05.752Z,33.67
2019-05-11T04:42:54.109Z,34.37
2019-05-11T04:43:19.257Z,34.27
2019-05-11T04:43:54.668Z,34.37
2019-05-11T04:44:30.051Z,34.37
2019-05-11T04:45:06.547Z,34.67
2019-05-11T04:45:42.361Z,34.60
2019-05-11T04:46:17.795Z,33.93
2019-05-11T04:46:54.153Z,33.87
2019-05-11T04:47:29.555Z,36.40
2019-05-11T04:48:05.002Z,34.80
2019-05-11T04:48:41.807Z,33.37
2019-05-11T04:49:17.121Z,35.10
2019-05-11T04:49:52.529Z,36.20
2019-05-11T04:50:28.234Z,37.10
2019-05-11T04:51:04.101Z,35.77
2019-05-11T04:51:39.142Z,35.43
2019-05-11T04:52:14.559Z,34.60
2019-05-11T04:52:49.982Z,35.07
2019-05-11T04:53:25.699Z,37.90
2019-05-11T04:54:01.026Z,36.03
2019-05-11T04:54:36.473Z,36.07
2019-05-11T04:55:11.883Z,35.77
2019-05-11T04:55:47.333Z,35.97
2019-05-11T04:56:22.382Z,34.90
2019-05-11T04:56:57.824Z,35.20
2019-05-11T04:57:33.514Z,34.30
2019-05-11T04:58:08.939Z,35.87
2019-05-11T04:58:44.951Z,35.20
2019-05-11T04:59:20.815Z,35.23
2019-05-11T04:59:56.570Z,34.83
2019-05-11T05:00:32.052Z,35.43
2019-05-11T05:01:07.120Z,35.90
2019-05-11T05:01:42.619Z,35.87
2019-05-11T05:02:18.032Z,34.00
2019-05-11T05:02:53.886Z,35.27
2019-05-11T05:03:40.511Z,33.50
2019-05-11T05:04:13.749Z,34.57
2019-05-11T05:04:43.178Z,33.93
2019-05-11T05:05:18.912Z,33.17
2019-05-11T05:05:53.951Z,32.80
2019-05-11T05:06:29.371Z,32.93
2019-05-11T05:07:05.468Z,32.97
2019-05-11T05:07:48.649Z,32.17
2019-05-11T05:08:21.204Z,33.00
2019-05-11T05:08:58.071Z,31.17
2019-05-11T05:09:36.027Z,33.10
2019-05-11T05:10:14.146Z,33.27
2019-05-11T05:10:52.632Z,33.03
2019-05-11T05:11:25.243Z,32.40
2019-05-11T05:12:01.771Z,32.57
2019-05-11T05:12:38.574Z,32.67
2019-05-11T05:13:13.670Z,32.87
2019-05-11T05:13:49.475Z,32.63
2019-05-11T05:14:24.889Z,33.37
2019-05-11T05:15:00.283Z,32.77
2019-05-11T05:15:35.418Z,32.27
2019-05-11T05:16:10.829Z,31.70
2019-05-11T05:16:46.563Z,31.93
2019-05-11T05:17:21.964Z,32.77
2019-05-11T05:17:56.998Z,32.30
2019-05-11T05:18:32.436Z,32.40
2019-05-11T05:19:07.893Z,31.93
2019-05-11T05:19:44.411Z,31.77
2019-05-11T05:20:20.690Z,31.07
2019-05-11T05:20:56.109Z,32.63
2019-05-11T05:21:31.549Z,31.97
2019-05-11T05:22:06.995Z,32.03
2019-05-11T05:22:42.070Z,33.10
2019-05-11T05:23:17.507Z,33.07
2019-05-11T05:23:52.912Z,32.30
2019-05-11T05:24:28.356Z,31.33
2019-05-11T05:25:03.463Z,31.77
2019-05-11T05:25:38.925Z,31.27
2019-05-11T05:26:14.331Z,32.40
2019-05-11T05:26:49.780Z,32.50
2019-05-11T05:27:24.882Z,32.50
2019-05-11T05:28:00.298Z,32.33
2019-05-11T05:28:35.741Z,33.10
2019-05-11T05:29:11.161Z,34.97
2019-05-11T05:29:46.285Z,33.97
2019-05-11T05:30:21.702Z,33.33
2019-05-11T05:30:57.129Z,33.17
2019-05-11T05:31:32.553Z,33.93
2019-05-11T05:32:07.910Z,33.10
2019-05-11T05:32:43.350Z,34.23
2019-05-11T05:33:18.780Z,34.93
2019-05-11T05:33:54.207Z,34.40
2019-05-11T05:34:29.274Z,33.87
2019-05-11T05:35:04.943Z,35.10
2019-05-11T05:35:40.402Z,36.13
2019-05-11T05:36:16.815Z,34.97
2019-05-11T05:36:52.191Z,34.40
2019-05-11T05:37:28.355Z,34.73
2019-05-11T05:38:03.759Z,35.63
2019-05-11T05:38:39.170Z,35.43
2019-05-11T05:39:14.786Z,35.73
2019-05-11T05:39:50.199Z,35.77
2019-05-11T05:40:25.618Z,35.80
2019-05-11T05:41:01.091Z,36.40
2019-05-11T05:41:36.118Z,36.60
2019-05-11T05:42:11.543Z,36.43
2019-05-11T05:42:47.003Z,36.97
2019-05-11T05:43:27.195Z,37.10
2019-05-11T05:43:59.199Z,36.37
2019-05-11T05:44:34.623Z,37.70
2019-05-11T05:45:10.046Z,36.90
2019-05-11T05:45:45.488Z,35.53
2019-05-11T05:46:20.563Z,36.67
2019-05-11T05:46:55.998Z,37.77
2019-05-11T05:47:31.930Z,37.40
2019-05-11T05:48:08.440Z,37.83
2019-05-11T05:48:43.480Z,38.27
2019-05-11T05:49:18.887Z,37.90
2019-05-11T05:49:54.320Z,37.50
2019-05-11T05:50:29.744Z,37.03
2019-05-11T05:51:04.787Z,36.83
2019-05-11T05:51:40.230Z,36.67
2019-05-11T05:52:15.834Z,37.93
2019-05-11T05:52:51.511Z,36.77
2019-05-11T05:53:26.870Z,38.00
2019-05-11T05:54:02.719Z,36.97
2019-05-11T05:54:38.207Z,37.30
2019-05-11T05:55:14.359Z,39.90
2019-05-11T05:55:49.414Z,38.40
2019-05-11T05:56:24.871Z,37.80
2019-05-11T05:57:00.285Z,39.10
2019-05-11T05:57:35.734Z,38.67
2019-05-11T05:58:10.778Z,37.60
2019-05-11T05:58:46.193Z,38.23
2019-05-11T05:59:21.670Z,39.23
2019-05-11T05:59:57.083Z,38.57
2019-05-11T06:00:32.413Z,40.20
2019-05-11T06:01:10.111Z,39.30
2019-05-11T06:01:44.930Z,41.77
2019-05-11T06:02:20.351Z,39.10
2019-05-11T06:02:55.720Z,39.23
2019-05-11T06:03:31.142Z,39.00
2019-05-11T06:04:06.583Z,39.60
2019-05-11T06:04:42.075Z,39.67
2019-05-11T06:05:17.111Z,40.33
2019-05-11T06:05:52.545Z,39.77
2019-05-11T06:06:27.938Z,42.20
2019-05-11T06:07:03.349Z,39.27
2019-05-11T06:07:38.425Z,41.50
2019-05-11T06:08:13.846Z,41.47
2019-05-11T06:08:49.246Z,40.17
2019-05-11T06:09:25.007Z,42.33
2019-05-11T06:10:00.076Z,40.03
2019-05-11T06:10:35.594Z,41.57
2019-05-11T06:11:11.296Z,41.73
2019-05-11T06:11:46.782Z,43.00
2019-05-11T06:12:25.134Z,43.97
2019-05-11T06:13:00.991Z,43.70
2019-05-11T06:13:45.079Z,43.60
2019-05-11T06:14:18.011Z,44.67
2019-05-11T06:14:54.958Z,44.57
2019-05-11T06:15:30.601Z,45.53
2019-05-11T06:16:06.009Z,47.00
2019-05-11T06:16:41.680Z,46.73
2019-05-11T06:17:16.730Z,48.77
2019-05-11T06:17:52.319Z,48.73
2019-05-11T06:18:27.990Z,46.67
2019-05-11T06:19:03.540Z,46.23
2019-05-11T06:19:38.938Z,48.13
2019-05-11T06:20:14.511Z,46.70
2019-05-11T06:20:50.068Z,47.63
2019-05-11T06:21:25.745Z,47.57
2019-05-11T06:22:00.999Z,46.67
2019-05-11T06:22:36.611Z,47.70
2019-05-11T06:23:12.035Z,46.43
2019-05-11T06:23:47.460Z,47.20
2019-05-11T06:24:22.520Z,48.87
2019-05-11T06:24:58.015Z,48.00
2019-05-11T06:25:33.827Z,47.43
2019-05-11T06:26:09.258Z,48.17
2019-05-11T06:26:44.799Z,49.57
2019-05-11T06:27:20.345Z,51.13
2019-05-11T06:27:55.866Z,51.53
2019-05-11T06:28:31.304Z,48.97
2019-05-11T06:29:06.430Z,50.30
2019-05-11T06:29:42.116Z,49.47
2019-05-11T06:30:17.540Z,49.57
2019-05-11T06:30:52.975Z,53.83
2019-05-11T06:31:28.019Z,52.43
2019-05-11T06:32:03.767Z,51.13
2019-05-11T06:32:39.715Z,52.83
2019-05-11T06:33:16.149Z,51.67
2019-05-11T06:33:51.442Z,51.80
2019-05-11T06:34:26.920Z,52.33
2019-05-11T06:35:04.786Z,52.83
2019-05-11T06:35:40.319Z,53.53
2019-05-11T06:36:15.354Z,53.80
2019-05-11T06:36:50.784Z,53.97
2019-05-11T06:37:26.311Z,55.20
2019-05-11T06:38:01.822Z,55.87
2019-05-11T06:38:36.902Z,56.17
2019-05-11T06:39:12.407Z,57.97
2019-05-11T06:39:47.819Z,55.60
2019-05-11T06:40:23.227Z,57.23
2019-05-11T06:40:58.263Z,57.37
2019-05-11T06:41:33.675Z,57.93
2019-05-11T06:42:09.083Z,57.60
2019-05-11T06:42:44.490Z,57.23
2019-05-11T06:43:19.594Z,59.20
2019-05-11T06:44:01.863Z,56.83
2019-05-11T06:44:32.611Z,56.87
2019-05-11T06:45:08.008Z,58.00
2019-05-11T06:45:43.072Z,58.07
2019-05-11T06:46:18.502Z,58.23
2019-05-11T06:46:54.155Z,57.27
2019-05-11T06:47:29.556Z,57.93
2019-05-11T06:48:04.583Z,57.97
2019-05-11T06:48:40.023Z,58.40
2019-05-11T06:49:15.670Z,59.30
2019-05-11T06:49:51.117Z,61.87
2019-05-11T06:50:26.158Z,59.37
2019-05-11T06:51:01.837Z,60.47
2019-05-11T06:51:40.426Z,59.00
2019-05-11T06:52:14.599Z,61.47
2019-05-11T06:52:49.744Z,59.33
2019-05-11T06:53:25.414Z,60.63
2019-05-11T06:54:00.818Z,59.35
2019-05-11T06:54:36.234Z,58.10
2019-05-11T06:55:11.290Z,61.43
2019-05-11T06:55:46.937Z,62.13
2019-05-11T06:56:22.615Z,60.00
2019-05-11T06:56:58.010Z,57.20
2019-05-11T06:57:33.057Z,60.93
2019-05-11T06:58:08.703Z,56.80
2019-05-11T06:58:45.550Z,59.60
2019-05-11T06:59:21.098Z,59.20
2019-05-11T06:59:56.138Z,60.87
2019-05-11T07:00:31.543Z,59.37
2019-05-11T07:01:06.985Z,61.70
2019-05-11T07:01:42.403Z,60.90
2019-05-11T07:02:17.678Z,57.53
2019-05-11T07:02:53.078Z,57.15
2019-05-11T07:03:28.491Z,59.05
2019-05-11T07:04:03.895Z,60.80
2019-05-11T07:04:38.946Z,57.10
2019-05-11T07:05:14.591Z,57.55
2019-05-11T07:05:50.275Z,58.90
2019-05-11T07:06:28.350Z,59.47
2019-05-11T07:07:02.661Z,60.60
2019-05-11T07:07:47.256Z,57.50
2019-05-11T07:08:15.180Z,59.48
2019-05-11T07:08:50.637Z,58.80
2019-05-11T07:09:25.915Z,56.77
2019-05-11T07:10:01.358Z,59.63
2019-05-11T07:10:37.095Z,58.73
2019-05-11T07:11:12.518Z,59.65
2019-05-11T07:11:47.915Z,57.63
2019-05-11T07:12:23.331Z,60.37
2019-05-11T07:12:58.735Z,59.38
2019-05-11T07:13:34.574Z,59.00
2019-05-11T07:14:19.887Z,59.43
2019-05-11T07:14:47.064Z,58.40
2019-05-11T07:15:22.480Z,56.17
2019-05-11T07:15:58.131Z,57.07
2019-05-11T07:16:33.169Z,56.30
2019-05-11T07:17:08.582Z,56.77
2019-05-11T07:17:44.023Z,55.93
2019-05-11T07:18:19.458Z,55.70
2019-05-11T07:18:56.046Z,54.47
2019-05-11T07:19:31.456Z,56.23
2019-05-11T07:20:07.014Z,54.77
2019-05-11T07:20:50.551Z,55.23
2019-05-11T07:21:19.623Z,55.35
2019-05-11T07:21:55.027Z,54.47
2019-05-11T07:22:30.454Z,53.67
2019-05-11T07:23:05.859Z,55.07
2019-05-11T07:23:41.256Z,55.17
2019-05-11T07:24:16.675Z,52.83
2019-05-11T07:24:52.097Z,51.67
2019-05-11T07:25:27.500Z,52.55
2019-05-11T07:26:02.881Z,51.67
2019-05-11T07:26:38.519Z,50.10
2019-05-11T07:27:14.905Z,52.63
2019-05-11T07:27:50.322Z,49.33
2019-05-11T07:28:25.396Z,49.63
2019-05-11T07:29:00.807Z,47.47
2019-05-11T07:29:36.513Z,51.17
2019-05-11T07:30:12.250Z,49.13
2019-05-11T07:30:47.312Z,50.53
2019-05-11T07:31:22.731Z,49.93
2019-05-11T07:32:05.538Z,49.50
2019-05-11T07:32:37.903Z,46.55
2019-05-11T07:33:12.433Z,49.80
2019-05-11T07:33:48.649Z,48.23
2019-05-11T07:34:24.235Z,48.67
2019-05-11T07:34:59.640Z,47.77
2019-05-11T07:35:34.702Z,49.07
2019-05-11T07:36:10.215Z,46.17
2019-05-11T07:36:47.601Z,47.73
2019-05-11T07:37:24.436Z,47.30
2019-05-11T07:37:59.703Z,47.13
2019-05-11T07:38:35.130Z,46.73
2019-05-11T07:39:10.544Z,45.50